Time;durP1;ratioP1;P1;durP2;ratioP2;P2;SDS_P1;SDS_P2;PMS_P1;PMS_P2;Temp;Humidity;BMP_temperature;BMP_pressure;BME280_temperature;BME280_humidity;BME280_pressure;Samples;Min_cycle;Max_cycle;Signal;HPM_P1;HPM_P2
2023/11/09 00:01:44;;;;;;;0.80;0.77;;;11.20;99.90;;;;;;5067311;28;20667;-36
2023/11/09 00:04:09;;;;;;;1.10;0.70;;;11.20;99.90;;;;;;5080875;28;20073;-37
2023/11/09 00:06:35;;;;;;;0.68;0.68;;;11.20;99.90;;;;;;5067820;28;20059;-37
2023/11/09 00:09:01;;;;;;;0.57;0.50;;;11.20;99.90;;;;;;5079285;28;20104;-37
2023/11/09 00:11:26;;;;;;;0.93;0.60;;;11.20;99.90;;;;;;5070612;28;20017;-36
2023/11/09 00:13:52;;;;;;;0.63;0.57;;;11.20;99.90;;;;;;5076842;28;20036;-37
2023/11/09 00:16:18;;;;;;;0.73;0.73;;;11.20;99.90;;;;;;5075882;28;20012;-37
2023/11/09 00:18:47;;;;;;;0.85;0.70;;;11.20;99.90;;;;;;5078856;28;20040;-37
2023/11/09 00:21:13;;;;;;;0.70;0.70;;;11.20;99.90;;;;;;5078182;28;20049;-37
2023/11/09 00:23:38;;;;;;;1.13;0.70;;;11.20;99.90;;;;;;5075734;28;20898;-36
2023/11/09 00:26:04;;;;;;;0.73;0.70;;;11.30;99.90;;;;;;5081954;28;20024;-36
2023/11/09 00:28:30;;;;;;;0.98;0.63;;;11.20;99.90;;;;;;5072789;28;20365;-37
2023/11/09 00:30:55;;;;;;;1.10;0.80;;;11.20;99.90;;;;;;5081980;28;20559;-37
2023/11/09 00:33:21;;;;;;;0.80;0.80;;;11.20;99.90;;;;;;5072131;28;20131;-37
2023/11/09 00:35:49;;;;;;;1.40;0.73;;;11.20;99.90;;;;;;5082868;28;20028;-36
2023/11/09 00:38:15;;;;;;;0.68;0.65;;;11.20;99.90;;;;;;5071009;28;20038;-37
2023/11/09 00:40:42;;;;;;;1.67;0.80;;;11.20;99.90;;;;;;5083478;28;20020;-38
2023/11/09 00:43:07;;;;;;;0.70;0.70;;;11.20;99.90;;;;;;5070131;28;20577;-36
2023/11/09 00:45:34;;;;;;;0.60;0.60;;;11.20;99.90;;;;;;5083585;28;20016;-36
2023/11/09 00:48:02;;;;;;;0.98;0.68;;;11.20;99.90;;;;;;5070107;28;20052;-37
2023/11/09 00:50:28;;;;;;;0.82;0.68;;;11.20;99.90;;;;;;5042973;28;20033;-36
2023/11/09 00:52:53;;;;;;;0.88;0.70;;;11.20;99.90;;;;;;5067176;28;20383;-46
2023/11/09 00:55:19;;;;;;;0.60;0.60;;;11.10;99.90;;;;;;5065827;28;20111;-37
2023/11/09 00:57:44;;;;;;;0.50;0.50;;;11.20;99.90;;;;;;5069862;28;20121;-37
2023/11/09 01:00:13;;;;;;;0.80;0.60;;;11.20;99.90;;;;;;5068386;28;20047;-37
2023/11/09 01:02:39;;;;;;;0.45;0.45;;;11.20;99.90;;;;;;5068106;28;20016;-37
2023/11/09 01:05:06;;;;;;;0.70;0.70;;;11.20;99.90;;;;;;5069206;28;20104;-55
2023/11/09 01:07:32;;;;;;;0.80;0.80;;;11.20;99.90;;;;;;5065983;28;20024;-37
2023/11/09 01:09:57;;;;;;;1.20;0.70;;;11.20;99.90;;;;;;5072267;28;20025;-37
2023/11/09 01:12:23;;;;;;;0.93;0.77;;;11.20;99.90;;;;;;5062806;28;20032;-35
2023/11/09 01:14:54;;;;;;;0.68;0.68;;;11.20;99.90;;;;;;5074598;28;20910;-36
2023/11/09 01:17:22;;;;;;;0.85;0.80;;;11.20;99.90;;;;;;5063544;28;20575;-36
2023/11/09 01:19:48;;;;;;;0.55;0.55;;;11.20;99.90;;;;;;5073692;28;20036;-36
2023/11/09 01:22:13;;;;;;;0.57;0.57;;;11.20;99.90;;;;;;5062446;28;20016;-36
2023/11/09 01:24:40;;;;;;;0.63;0.63;;;11.20;99.90;;;;;;5073790;28;20813;-35
2023/11/09 01:27:06;;;;;;;1.83;0.60;;;11.20;99.90;;;;;;5061226;28;20024;-35
2023/11/09 01:29:31;;;;;;;0.95;0.70;;;11.20;99.90;;;;;;5073826;28;20036;-35
2023/11/09 01:31:57;;;;;;;1.65;0.77;;;11.20;99.90;;;;;;5060237;28;20559;-38
2023/11/09 01:34:24;;;;;;;0.65;0.60;;;11.20;99.90;;;;;;5072008;28;20103;-37
2023/11/09 01:36:51;;;;;;;0.85;0.85;;;11.20;99.90;;;;;;5063103;28;20024;-36
2023/11/09 01:39:17;;;;;;;0.60;0.60;;;11.20;99.90;;;;;;5068802;28;20061;-37
2023/11/09 01:41:45;;;;;;;0.60;0.60;;;11.20;99.90;;;;;;5064943;28;20025;-39
2023/11/09 01:44:10;;;;;;;0.88;0.63;;;11.30;99.90;;;;;;5067700;28;20024;-37
2023/11/09 01:46:40;;;;;;;0.75;0.75;;;11.20;99.90;;;;;;5068704;28;20029;-37
2023/11/09 01:49:06;;;;;;;0.63;0.60;;;11.20;99.90;;;;;;5082385;28;20040;-38
2023/11/09 01:51:32;;;;;;;0.65;0.65;;;11.20;99.90;;;;;;5082723;28;20085;-37
2023/11/09 01:53:59;;;;;;;0.75;0.75;;;11.20;99.90;;;;;;5081896;28;20020;-37
2023/11/09 01:56:24;;;;;;;2.45;0.70;;;11.30;99.90;;;;;;5081403;28;20028;-35
2023/11/09 01:58:51;;;;;;;2.88;0.70;;;11.20;99.90;;;;;;5082656;28;20454;-35
2023/11/09 02:01:19;;;;;;;1.95;0.80;;;11.20;99.90;;;;;;5080508;28;20031;-36
2023/11/09 02:03:45;;;;;;;0.98;0.60;;;11.20;99.90;;;;;;5081633;28;20032;-37
2023/11/09 02:06:12;;;;;;;1.02;0.60;;;11.20;99.90;;;;;;5081551;28;20016;-36
2023/11/09 02:08:38;;;;;;;0.73;0.60;;;11.20;99.90;;;;;;5081552;28;20094;-37
2023/11/09 02:11:05;;;;;;;0.60;0.60;;;11.20;99.90;;;;;;5082151;28;20028;-37
2023/11/09 02:13:34;;;;;;;4.18;1.27;;;11.20;99.90;;;;;;5081545;28;20024;-37
2023/11/09 02:16:01;;;;;;;0.65;0.55;;;11.20;99.90;;;;;;5081754;28;20051;-37
2023/11/09 02:18:31;;;;;;;0.70;0.68;;;11.20;99.90;;;;;;5081565;28;20518;-36
2023/11/09 02:20:57;;;;;;;0.50;0.50;;;11.20;99.90;;;;;;5081245;28;20040;-37
2023/11/09 02:23:23;;;;;;;0.50;0.50;;;11.20;99.90;;;;;;5081312;28;20092;-37
2023/11/09 02:25:50;;;;;;;1.02;0.60;;;11.20;99.90;;;;;;5081389;28;20507;-37
2023/11/09 02:28:15;;;;;;;0.70;0.70;;;11.30;99.90;;;;;;5080531;28;20020;-36
2023/11/09 02:30:41;;;;;;;1.13;0.60;;;11.30;99.90;;;;;;5081489;28;20069;-37
2023/11/09 02:33:09;;;;;;;0.70;0.68;;;11.30;99.90;;;;;;5082002;28;20080;-35
2023/11/09 02:35:35;;;;;;;0.47;0.43;;;11.30;99.90;;;;;;5081515;28;20020;-36
2023/11/09 02:38:03;;;;;;;0.57;0.57;;;11.30;99.90;;;;;;5079614;28;20027;-36
2023/11/09 02:40:29;;;;;;;0.70;0.70;;;11.30;99.90;;;;;;5081138;28;20024;-34
2023/11/09 02:42:55;;;;;;;0.73;0.73;;;11.30;99.90;;;;;;5070037;28;20731;-35
2023/11/09 02:45:21;;;;;;;1.75;0.80;;;11.30;99.90;;;;;;5081199;28;20483;-36
2023/11/09 02:47:46;;;;;;;1.48;0.63;;;11.30;99.90;;;;;;5074671;28;20045;-36
2023/11/09 02:50:12;;;;;;;0.68;0.60;;;11.30;99.90;;;;;;5060174;28;20047;-36
2023/11/09 02:52:38;;;;;;;1.13;0.60;;;11.30;99.90;;;;;;5073136;28;20529;-36
2023/11/09 02:55:04;;;;;;;0.60;0.60;;;11.30;99.90;;;;;;5059801;28;20849;-36
2023/11/09 02:57:30;;;;;;;0.70;0.70;;;11.30;99.90;;;;;;5072600;28;20379;-37
2023/11/09 02:59:56;;;;;;;1.20;0.70;;;11.30;99.90;;;;;;5060525;28;20044;-36
2023/11/09 03:02:21;;;;;;;0.50;0.50;;;11.30;99.90;;;;;;5071494;28;20072;-36
2023/11/09 03:04:47;;;;;;;1.08;0.60;;;11.30;99.90;;;;;;5061798;28;20571;-36
2023/11/09 03:07:15;;;;;;;0.85;0.70;;;11.30;99.90;;;;;;5068448;28;20992;-37
2023/11/09 03:09:41;;;;;;;0.95;0.70;;;11.30;99.90;;;;;;5063936;28;20054;-37
2023/11/09 03:12:07;;;;;;;1.08;0.60;;;11.30;99.90;;;;;;5066715;28;20630;-36
2023/11/09 03:14:36;;;;;;;0.68;0.68;;;11.30;99.90;;;;;;5066257;28;20074;-37
2023/11/09 03:17:10;;;;;;;1.08;0.90;;;11.30;99.90;;;;;;5064115;28;20027;-36
2023/11/09 03:19:37;;;;;;;0.82;0.82;;;11.30;99.90;;;;;;5068006;28;20033;-38
2023/11/09 03:22:08;;;;;;;0.88;0.75;;;11.30;99.90;;;;;;5063299;28;20024;-36
2023/11/09 03:24:34;;;;;;;0.80;0.80;;;11.30;99.90;;;;;;5068671;28;20115;-36
2023/11/09 03:27:05;;;;;;;0.70;0.70;;;11.30;99.90;;;;;;5061282;28;20020;-36
2023/11/09 03:29:30;;;;;;;0.93;0.88;;;11.30;99.90;;;;;;5058966;28;20089;-36
2023/11/09 03:31:56;;;;;;;0.80;0.80;;;11.30;99.90;;;;;;5078595;28;20024;-36
2023/11/09 03:34:22;;;;;;;1.38;0.80;;;11.30;99.90;;;;;;5068599;28;20027;-35
2023/11/09 03:36:47;;;;;;;0.80;0.80;;;11.30;99.90;;;;;;5080201;28;20027;-35
2023/11/09 03:39:13;;;;;;;0.90;0.90;;;11.30;99.90;;;;;;5067265;28;20447;-36
2023/11/09 03:41:39;;;;;;;0.77;0.77;;;11.30;99.90;;;;;;5081689;28;20027;-37
2023/11/09 03:44:05;;;;;;;0.80;0.80;;;11.30;99.90;;;;;;5068471;28;20025;-37
2023/11/09 03:46:30;;;;;;;0.80;0.80;;;11.40;99.90;;;;;;5080617;28;20800;-36
2023/11/09 03:48:56;;;;;;;1.23;0.70;;;11.40;99.90;;;;;;5068698;28;20122;-42
2023/11/09 03:51:24;;;;;;;0.70;0.70;;;11.40;99.90;;;;;;5078514;28;20131;-37
2023/11/09 03:53:49;;;;;;;0.70;0.70;;;11.40;99.90;;;;;;5070313;28;20085;-37
2023/11/09 03:56:15;;;;;;;1.23;0.68;;;11.40;99.90;;;;;;5076294;28;20028;-36
2023/11/09 03:58:40;;;;;;;0.80;0.80;;;11.40;99.90;;;;;;5073817;28;20123;-37
2023/11/09 04:01:06;;;;;;;0.80;0.80;;;11.40;99.90;;;;;;5073929;28;20386;-37
2023/11/09 04:03:32;;;;;;;1.10;1.00;;;11.50;99.90;;;;;;5076645;28;20088;-36
2023/11/09 04:05:57;;;;;;;1.30;1.08;;;11.40;99.90;;;;;;5070990;28;20055;-37
2023/11/09 04:08:23;;;;;;;0.90;0.90;;;11.40;99.90;;;;;;5078476;28;20017;-37
2023/11/09 04:10:48;;;;;;;0.90;0.90;;;11.40;99.90;;;;;;5069776;28;20038;-38
2023/11/09 04:13:14;;;;;;;0.80;0.80;;;11.50;99.90;;;;;;5077310;28;20027;-36
2023/11/09 04:15:42;;;;;;;0.90;0.90;;;11.40;99.90;;;;;;5070520;28;20086;-37
2023/11/09 04:18:10;;;;;;;2.10;1.15;;;11.50;99.90;;;;;;5060274;28;20084;-36
2023/11/09 04:20:37;;;;;;;1.10;1.00;;;11.50;99.90;;;;;;5074069;28;20045;-38
2023/11/09 04:23:03;;;;;;;1.10;1.10;;;11.50;99.90;;;;;;5060514;28;20017;-36
2023/11/09 04:25:29;;;;;;;1.25;1.15;;;11.50;99.90;;;;;;5072525;28;20472;-36
2023/11/09 04:27:55;;;;;;;1.10;1.10;;;11.50;99.90;;;;;;5059295;28;20021;-37
2023/11/09 04:30:20;;;;;;;1.45;1.15;;;11.50;99.90;;;;;;5071095;28;20081;-36
2023/11/09 04:32:47;;;;;;;1.00;0.95;;;11.50;99.90;;;;;;5061047;28;20478;-37
2023/11/09 04:35:14;;;;;;;1.23;1.20;;;11.50;99.90;;;;;;5067836;28;20809;-38
2023/11/09 04:37:41;;;;;;;1.40;1.30;;;11.60;99.90;;;;;;5062720;28;20032;-36
2023/11/09 04:40:15;;;;;;;1.60;1.20;;;11.60;99.90;;;;;;5066402;28;20077;-36
2023/11/09 04:42:49;;;;;;;1.40;1.30;;;11.60;99.90;;;;;;5063687;28;20029;-36
2023/11/09 04:45:16;;;;;;;1.88;1.40;;;11.60;99.90;;;;;;5064588;28;20038;-36
2023/11/09 04:47:45;;;;;;;1.77;1.25;;;11.60;99.90;;;;;;5075387;28;20044;-37
2023/11/09 04:50:15;;;;;;;1.40;1.30;;;11.60;99.90;;;;;;5079157;28;20056;-36
2023/11/09 04:52:44;;;;;;;1.38;1.27;;;11.60;99.90;;;;;;5080373;28;20059;-37
2023/11/09 04:55:20;;;;;;;1.52;1.40;;;11.60;99.90;;;;;;5079150;28;20100;-37
2023/11/09 05:08:46;;;;;;;2.10;1.90;;;11.70;99.90;;;;;;5083857;28;20132;-36
2023/11/09 05:11:13;;;;;;;2.03;1.92;;;11.70;99.90;;;;;;5082055;28;20123;-37
2023/11/09 05:13:39;;;;;;;3.20;2.03;;;11.70;99.90;;;;;;5083247;28;20020;-36
2023/11/09 05:16:05;;;;;;;2.13;2.00;;;11.70;99.90;;;;;;5083096;28;20028;-37
2023/11/09 05:18:31;;;;;;;2.80;1.80;;;11.70;99.90;;;;;;5081609;28;21141;-36
2023/11/09 05:20:58;;;;;;;2.42;2.22;;;11.70;99.90;;;;;;5083716;28;20020;-36
2023/11/09 05:23:24;;;;;;;2.75;2.55;;;11.70;99.90;;;;;;5083125;28;20024;-36
2023/11/09 05:25:50;;;;;;;2.95;2.75;;;11.70;99.90;;;;;;5083490;28;20067;-37
2023/11/09 05:28:17;;;;;;;2.85;2.65;;;11.70;99.90;;;;;;5081765;28;20064;-38
2023/11/09 05:30:42;;;;;;;2.50;2.30;;;11.70;99.90;;;;;;5082542;28;20024;-37
2023/11/09 05:33:08;;;;;;;2.65;2.15;;;11.70;99.90;;;;;;5083174;28;20628;-37
2023/11/09 05:35:34;;;;;;;2.72;2.08;;;11.60;99.90;;;;;;5082905;28;20874;-37
2023/11/09 05:38:00;;;;;;;2.78;2.15;;;11.60;99.90;;;;;;5082313;28;20502;-36
2023/11/09 05:40:26;;;;;;;2.33;2.13;;;11.50;99.90;;;;;;5082506;28;20028;-37
2023/11/09 05:42:52;;;;;;;2.05;1.90;;;11.50;99.90;;;;;;5082031;28;20085;-36
2023/11/09 05:45:18;;;;;;;2.00;1.90;;;11.50;99.90;;;;;;5081338;28;20028;-36
2023/11/09 05:47:44;;;;;;;2.35;1.95;;;11.50;99.90;;;;;;5073253;28;20053;-37
2023/11/09 05:50:10;;;;;;;2.05;1.80;;;11.40;99.90;;;;;;5079707;28;20028;-36
2023/11/09 05:52:38;;;;;;;3.10;1.90;;;11.40;99.90;;;;;;5074588;28;20024;-37
2023/11/09 05:55:04;;;;;;;1.92;1.80;;;11.40;99.90;;;;;;5076737;28;20167;-37
2023/11/09 05:57:30;;;;;;;1.90;1.77;;;11.40;99.90;;;;;;5077238;28;20025;-37
2023/11/09 05:59:56;;;;;;;2.20;2.00;;;11.40;99.90;;;;;;5073311;28;20089;-37
2023/11/09 06:02:22;;;;;;;2.50;2.30;;;11.40;99.90;;;;;;5073144;28;20040;-37
2023/11/09 06:04:48;;;;;;;3.17;2.85;;;11.40;99.90;;;;;;5071779;28;20032;-36
2023/11/09 06:07:14;;;;;;;2.72;2.53;;;11.40;99.90;;;;;;5061901;28;20028;-37
2023/11/09 06:09:40;;;;;;;2.70;2.50;;;11.50;99.90;;;;;;5073629;28;20197;-36
2023/11/09 06:12:08;;;;;;;2.45;2.20;;;11.50;99.90;;;;;;5080476;28;20097;-37
2023/11/09 06:14:34;;;;;;;2.45;2.28;;;11.50;99.90;;;;;;5068546;28;20025;-37
2023/11/09 06:16:59;;;;;;;2.70;2.50;;;11.50;99.90;;;;;;5061938;28;20706;-37
2023/11/09 06:19:25;;;;;;;4.82;3.30;;;11.50;99.90;;;;;;5073770;28;20466;-38
2023/11/09 06:21:52;;;;;;;4.45;3.40;;;11.40;99.90;;;;;;5061275;28;20495;-36
2023/11/09 06:24:18;;;;;;;5.03;3.17;;;11.40;99.90;;;;;;5074070;28;20106;-37
2023/11/09 06:26:44;;;;;;;3.05;2.75;;;11.30;99.90;;;;;;5061721;28;20504;-37
2023/11/09 06:29:10;;;;;;;3.40;3.10;;;11.30;99.90;;;;;;5070716;28;20874;-37
2023/11/09 06:31:37;;;;;;;2.72;2.53;;;11.30;99.90;;;;;;5063322;28;20031;-37
2023/11/09 06:34:03;;;;;;;2.70;2.50;;;11.30;99.90;;;;;;5067741;28;20059;-37
2023/11/09 06:36:29;;;;;;;3.58;2.80;;;11.30;99.90;;;;;;5065817;28;20816;-37
2023/11/09 06:38:55;;;;;;;2.88;2.47;;;11.30;99.90;;;;;;5066255;28;20037;-36
2023/11/09 06:41:21;;;;;;;3.72;2.30;;;11.30;99.90;;;;;;5067226;28;20099;-36
2023/11/09 06:43:46;;;;;;;2.58;2.38;;;11.30;99.90;;;;;;5063293;28;20176;-37
2023/11/09 06:46:12;;;;;;;2.20;2.00;;;11.30;99.90;;;;;;5072095;28;20032;-37
2023/11/09 06:48:38;;;;;;;4.70;2.50;;;11.30;99.90;;;;;;5079474;28;20084;-37
2023/11/09 06:51:04;;;;;;;3.50;2.30;;;11.20;99.90;;;;;;5069841;28;20026;-36
2023/11/09 06:53:30;;;;;;;3.22;2.40;;;11.20;99.90;;;;;;5080020;28;20105;-36
2023/11/09 06:55:56;;;;;;;3.33;2.83;;;11.20;99.90;;;;;;5068071;28;20392;-37
2023/11/09 06:58:21;;;;;;;3.38;2.30;;;11.20;99.90;;;;;;5060844;28;20036;-36
2023/11/09 07:00:47;;;;;;;3.55;2.63;;;11.10;99.90;;;;;;5073993;28;20068;-36
2023/11/09 07:03:13;;;;;;;3.78;3.15;;;11.10;99.90;;;;;;5058379;28;20492;-36
2023/11/09 07:05:41;;;;;;;4.55;3.65;;;11.10;99.90;;;;;;5072517;28;20055;-36
2023/11/09 07:08:08;;;;;;;4.05;3.17;;;11.10;99.90;;;;;;5039657;28;20114;-36
2023/11/09 07:10:34;;;;;;;5.88;3.75;;;11.10;99.90;;;;;;5063568;28;20588;-36
2023/11/09 07:13:00;;;;;;;5.07;3.50;;;11.00;99.90;;;;;;5060732;28;20040;-36
2023/11/09 07:15:28;;;;;;;4.25;3.72;;;11.00;99.90;;;;;;5067552;28;20020;-35
2023/11/09 07:17:54;;;;;;;5.13;3.80;;;11.00;99.90;;;;;;5063699;28;20478;-36
2023/11/09 07:20:21;;;;;;;4.15;3.75;;;11.00;99.90;;;;;;5065547;28;20036;-35
2023/11/09 07:22:50;;;;;;;4.32;3.38;;;11.00;99.90;;;;;;5067093;28;20029;-35
2023/11/09 07:25:16;;;;;;;3.75;3.20;;;11.00;99.90;;;;;;5062379;28;20074;-35
2023/11/09 07:27:42;;;;;;;6.78;3.42;;;11.10;99.90;;;;;;5069240;28;20717;-36
2023/11/09 07:30:08;;;;;;;4.10;3.65;;;11.10;99.90;;;;;;5060905;28;20130;-36
2023/11/09 07:32:34;;;;;;;4.60;3.08;;;11.10;99.90;;;;;;5070797;28;20090;-36
2023/11/09 07:35:00;;;;;;;3.58;2.70;;;11.10;99.90;;;;;;5062200;28;20031;-37
2023/11/09 07:37:27;;;;;;;4.15;2.60;;;11.10;99.90;;;;;;5071207;28;20020;-36
2023/11/09 07:39:53;;;;;;;4.05;3.00;;;11.10;99.90;;;;;;5060261;28;20045;-36
2023/11/09 07:42:18;;;;;;;3.60;2.50;;;11.10;99.90;;;;;;5072410;28;20027;-37
2023/11/09 07:44:44;;;;;;;5.65;3.22;;;11.10;99.90;;;;;;5059655;28;20029;-36
2023/11/09 07:47:09;;;;;;;5.30;3.10;;;11.10;99.90;;;;;;5072346;28;20044;-36
2023/11/09 07:49:35;;;;;;;3.05;2.60;;;11.10;99.90;;;;;;5060237;28;20129;-37
2023/11/09 07:52:01;;;;;;;2.50;2.30;;;11.10;99.90;;;;;;5069829;28;20063;-36
2023/11/09 07:54:29;;;;;;;3.90;2.55;;;11.10;99.90;;;;;;5060483;28;20892;-36
2023/11/09 07:56:58;;;;;;;4.30;2.60;;;11.10;99.90;;;;;;5068146;28;20107;-37
2023/11/09 07:59:24;;;;;;;2.65;2.30;;;11.00;99.90;;;;;;5062591;28;20044;-36
2023/11/09 08:01:50;;;;;;;3.65;2.55;;;11.00;99.90;;;;;;5066959;28;20023;-37
2023/11/09 08:04:16;;;;;;;2.60;2.40;;;11.00;99.90;;;;;;5065806;28;20041;-37
2023/11/09 08:06:42;;;;;;;3.15;2.13;;;11.10;99.90;;;;;;5063473;28;20061;-37
2023/11/09 08:09:15;;;;;;;2.97;2.20;;;11.10;99.90;;;;;;5068053;28;20860;-35
2023/11/09 08:11:42;;;;;;;3.85;2.55;;;11.10;99.90;;;;;;5063036;28;20070;-36
2023/11/09 08:14:08;;;;;;;3.65;2.53;;;11.10;99.90;;;;;;5069084;28;20028;-37
2023/11/09 08:16:33;;;;;;;2.80;2.60;;;11.10;99.90;;;;;;5062252;28;20036;-36
2023/11/09 08:19:03;;;;;;;3.13;2.85;;;11.20;99.90;;;;;;5071046;28;20045;-36
2023/11/09 08:21:29;;;;;;;4.25;3.60;;;11.20;99.90;;;;;;5060314;28;20021;-35
2023/11/09 08:23:56;;;;;;;5.40;3.50;;;11.20;99.90;;;;;;5071409;28;20536;-35
2023/11/09 08:26:21;;;;;;;4.82;3.40;;;11.30;99.90;;;;;;5059259;28;20021;-36
2023/11/09 08:28:47;;;;;;;5.50;4.05;;;11.30;99.90;;;;;;5072411;28;20027;-35
2023/11/09 08:31:13;;;;;;;4.57;3.72;;;11.40;99.90;;;;;;5059730;28;20024;-35
2023/11/09 08:33:39;;;;;;;5.13;4.13;;;11.40;99.90;;;;;;5071949;28;20040;-36
2023/11/09 08:36:05;;;;;;;4.85;4.40;;;11.40;99.90;;;;;;5059770;28;20055;-37
2023/11/09 08:38:35;;;;;;;4.93;3.80;;;11.40;99.90;;;;;;5074318;28;20093;-36
2023/11/09 08:41:01;;;;;;;6.45;4.60;;;11.40;99.90;;;;;;5064507;28;20028;-36
2023/11/09 08:43:26;;;;;;;5.40;4.22;;;11.40;99.90;;;;;;5071672;28;20032;-36
2023/11/09 08:45:52;;;;;;;7.35;5.20;;;11.40;99.90;;;;;;5067563;28;20078;-36
2023/11/09 08:48:18;;;;;;;6.50;4.88;;;11.30;99.90;;;;;;5076036;28;20052;-36
2023/11/09 08:50:45;;;;;;;7.47;5.43;;;11.30;99.90;;;;;;5084695;28;20430;-37
2023/11/09 08:53:11;;;;;;;7.43;5.65;;;11.30;99.90;;;;;;5083755;28;20115;-36
2023/11/09 08:55:39;;;;;;;8.55;5.80;;;11.20;99.90;;;;;;5082838;28;20024;-36
2023/11/09 08:58:05;;;;;;;7.15;4.93;;;11.20;99.90;;;;;;5082825;28;20643;-37
2023/11/09 09:00:32;;;;;;;7.57;6.00;;;11.20;99.90;;;;;;5082645;28;20048;-37
2023/11/09 09:02:58;;;;;;;9.40;5.47;;;11.30;99.90;;;;;;5082478;28;20034;-36
2023/11/09 09:05:26;;;;;;;6.40;4.63;;;11.30;99.90;;;;;;5083269;28;20028;-37
2023/11/09 09:07:53;;;;;;;8.40;6.10;;;11.30;99.90;;;;;;5083138;28;20115;-37
2023/11/09 09:10:20;;;;;;;8.60;5.75;;;11.30;99.90;;;;;;5081496;28;20019;-37
2023/11/09 09:12:49;;;;;;;9.35;6.30;;;11.30;99.90;;;;;;5083227;28;20044;-38
2023/11/09 09:15:16;;;;;;;8.45;6.28;;;11.40;99.90;;;;;;5082434;28;20028;-37
2023/11/09 09:17:49;;;;;;;9.80;6.43;;;11.40;99.90;;;;;;5081079;28;20028;-37
2023/11/09 09:20:20;;;;;;;11.30;7.43;;;11.40;99.90;;;;;;5081930;28;20476;-35
2023/11/09 09:22:49;;;;;;;13.80;8.15;;;11.50;99.90;;;;;;5082240;28;20034;-37
2023/11/09 09:25:16;;;;;;;9.75;7.53;;;11.50;99.90;;;;;;5081867;28;20081;-37
2023/11/09 09:27:46;;;;;;;10.27;7.15;;;11.50;99.90;;;;;;5082758;28;20528;-36
2023/11/09 09:30:14;;;;;;;14.07;8.20;;;11.50;99.90;;;;;;5081504;28;20027;-41
2023/11/09 09:32:42;;;;;;;10.68;7.43;;;11.50;99.90;;;;;;5083112;28;20036;-36
2023/11/09 09:35:29;;;;;;;11.20;7.03;;;11.50;99.90;;;;;;5082507;28;20487;-37
2023/11/09 09:38:05;;;;;;;11.27;6.82;;;11.60;99.90;;;;;;5081856;28;20157;-35
2023/11/09 09:40:32;;;;;;;11.80;8.82;;;11.60;99.90;;;;;;5082159;28;20028;-36
2023/11/09 09:42:58;;;;;;;13.82;8.88;;;11.60;99.90;;;;;;5081429;28;20036;-37
2023/11/09 09:45:30;;;;;;;13.75;8.45;;;11.60;99.90;;;;;;5081531;28;20028;-36
2023/11/09 09:48:01;;;;;;;9.25;6.72;;;11.70;99.90;;;;;;5081829;28;20445;-38
2023/11/09 09:50:34;;;;;;;16.17;9.57;;;11.80;99.90;;;;;;5082368;28;20050;-37
2023/11/09 09:53:01;;;;;;;14.48;9.88;;;11.80;99.90;;;;;;5082387;28;20756;-36
2023/11/09 09:55:27;;;;;;;16.95;9.95;;;11.90;99.90;;;;;;5081994;28;20472;-37
2023/11/09 09:58:03;;;;;;;12.63;9.02;;;11.90;99.90;;;;;;5081648;28;20793;-36
2023/11/09 10:00:31;;;;;;;13.70;9.50;;;11.90;99.90;;;;;;5082703;28;20032;-36
2023/11/09 10:03:00;;;;;;;13.32;9.02;;;11.90;99.90;;;;;;5082772;28;20039;-36
2023/11/09 10:05:29;;;;;;;13.25;9.07;;;12.00;99.90;;;;;;5080616;28;20619;-36
2023/11/09 10:07:59;;;;;;;12.32;7.78;;;12.00;99.90;;;;;;5082829;28;20028;-36
2023/11/09 10:10:26;;;;;;;12.05;7.28;;;11.90;99.90;;;;;;5081620;28;20539;-36
2023/11/09 10:12:53;;;;;;;8.95;6.55;;;11.90;99.90;;;;;;5081957;28;20111;-36
2023/11/09 10:15:20;;;;;;;12.10;7.60;;;11.90;99.90;;;;;;5082001;28;20028;-36
2023/11/09 10:17:46;;;;;;;13.80;7.80;;;11.90;99.90;;;;;;5082038;28;20028;-37
2023/11/09 10:20:15;;;;;;;13.68;7.65;;;11.90;99.90;;;;;;5080329;28;20166;-36
2023/11/09 10:22:41;;;;;;;11.20;7.00;;;11.90;99.90;;;;;;5082041;28;20801;-36
2023/11/09 10:25:11;;;;;;;13.38;8.10;;;11.90;99.90;;;;;;5082286;28;20036;-37
2023/11/09 10:27:37;;;;;;;12.02;7.78;;;11.90;99.90;;;;;;5082084;28;20021;-37
2023/11/09 10:30:05;;;;;;;12.55;9.32;;;12.00;99.90;;;;;;5082320;28;20055;-36
2023/11/09 10:32:33;;;;;;;12.00;7.75;;;12.10;99.90;;;;;;5081783;28;20024;-36
2023/11/09 10:35:01;;;;;;;15.70;9.27;;;12.20;99.90;;;;;;5060848;28;20090;-36
2023/11/09 10:37:29;;;;;;;12.32;7.68;;;12.30;99.90;;;;;;5076185;28;20024;-37
2023/11/09 10:39:57;;;;;;;14.63;8.13;;;12.40;99.90;;;;;;5081136;28;20067;-37
2023/11/09 10:42:24;;;;;;;13.65;8.63;;;12.50;99.90;;;;;;5081373;28;20071;-36
2023/11/09 10:44:52;;;;;;;14.88;8.10;;;12.60;99.90;;;;;;5082657;28;20027;-37
2023/11/09 10:47:22;;;;;;;14.48;9.15;;;12.60;99.90;;;;;;5076012;28;20044;-37
2023/11/09 10:49:52;;;;;;;11.82;9.45;;;12.60;99.90;;;;;;5076231;28;20070;-37
2023/11/09 10:52:19;;;;;;;14.25;8.70;;;12.50;99.90;;;;;;5077013;28;20751;-36
2023/11/09 10:54:55;;;;;;;15.00;8.80;;;12.50;99.90;;;;;;5074017;28;20437;-37
2023/11/09 10:57:22;;;;;;;19.30;8.95;;;12.50;99.90;;;;;;5077727;28;20020;-38
2023/11/09 10:59:50;;;;;;;14.45;8.18;;;12.50;99.90;;;;;;5072205;28;20040;-37
2023/11/09 11:02:20;;;;;;;12.45;6.80;;;12.50;99.90;;;;;;5079078;28;20107;-37
2023/11/09 11:04:49;;;;;;;15.35;7.22;;;12.50;99.90;;;;;;5071047;28;20024;-36
2023/11/09 11:07:25;;;;;;;12.20;6.75;;;12.50;99.90;;;;;;5079478;28;20031;-36
2023/11/09 11:09:52;;;;;;;9.93;6.10;;;12.50;99.90;;;;;;5058572;28;20103;-37
2023/11/09 11:12:18;;;;;;;15.23;6.85;;;12.50;99.90;;;;;;5079214;28;20089;-36
2023/11/09 11:14:47;;;;;;;7.57;5.30;;;12.50;99.90;;;;;;5070415;28;20020;-40
2023/11/09 11:17:22;;;;;;;10.68;5.75;;;12.50;99.90;;;;;;5080003;28;20024;-35
2023/11/09 11:20:27;;;;;;;11.15;5.80;;;12.50;99.90;;;;;;5069114;28;20143;-37
2023/11/09 11:23:20;;;;;;;10.38;4.75;;;12.40;99.90;;;;;;5043142;28;20031;-36
2023/11/09 11:25:56;;;;;;;10.07;4.68;;;12.40;99.90;;;;;;5065671;28;20032;-36
2023/11/09 11:28:26;;;;;;;8.18;4.35;;;12.40;99.90;;;;;;5077431;28;20569;-36
2023/11/09 11:30:52;;;;;;;6.63;3.42;;;12.50;99.90;;;;;;5071880;28;20028;-36
2023/11/09 11:33:20;;;;;;;8.07;3.08;;;12.50;99.90;;;;;;5079263;28;20028;-37
2023/11/09 11:35:56;;;;;;;6.85;3.10;;;12.50;99.90;;;;;;5070489;28;20035;-37
2023/11/09 11:38:28;;;;;;;7.40;3.13;;;12.40;99.90;;;;;;5078988;28;20135;-38
2023/11/09 11:41:12;;;;;;;5.80;2.70;;;12.40;99.90;;;;;;5059038;28;20024;-38
2023/11/09 11:43:40;;;;;;;8.18;3.03;;;12.40;99.90;;;;;;5078534;28;20838;-36
2023/11/09 11:46:12;;;;;;;8.02;2.70;;;12.40;99.90;;;;;;5069738;28;20107;-36
2023/11/09 11:49:14;;;;;;;10.70;3.28;;;12.40;99.90;;;;;;5078929;28;20182;-36
2023/11/09 11:51:48;;;;;;;6.45;2.47;;;12.40;99.90;;;;;;5065360;28;20072;-36
2023/11/09 11:54:15;;;;;;;5.97;2.22;;;12.40;99.90;;;;;;5076699;28;20020;-36
2023/11/09 11:56:41;;;;;;;8.02;2.42;;;12.30;99.90;;;;;;5072457;28;20032;-36
2023/11/09 11:59:09;;;;;;;6.55;2.80;;;12.30;99.90;;;;;;5078349;28;20550;-36
2023/11/09 12:01:36;;;;;;;6.82;3.22;;;12.30;99.90;;;;;;5058019;28;20031;-35
2023/11/09 12:04:03;;;;;;;9.40;2.42;;;12.30;99.90;;;;;;5078807;28;20425;-36
2023/11/09 12:06:31;;;;;;;7.60;2.88;;;12.30;99.90;;;;;;5068718;28;20020;-37
2023/11/09 12:08:59;;;;;;;6.22;2.42;;;12.30;99.90;;;;;;5079628;28;20484;-37
2023/11/09 12:11:28;;;;;;;6.45;1.88;;;12.30;99.90;;;;;;5069395;28;20028;-37
2023/11/09 12:13:56;;;;;;;5.53;1.88;;;12.30;99.90;;;;;;5084587;28;20479;-39
2023/11/09 12:16:24;;;;;;;7.85;2.40;;;12.30;99.90;;;;;;5071686;28;20104;-37
2023/11/09 12:18:56;;;;;;;7.30;2.10;;;12.30;99.90;;;;;;5084243;28;20035;-36
2023/11/09 12:21:43;;;;;;;7.57;2.03;;;12.30;99.90;;;;;;5071631;28;20035;-36
2023/11/09 12:24:15;;;;;;;5.97;1.70;;;12.40;99.90;;;;;;5083422;28;20095;-36
2023/11/09 12:26:41;;;;;;;5.97;2.00;;;12.40;99.90;;;;;;5070609;28;20033;-37
2023/11/09 12:29:09;;;;;;;7.60;2.28;;;12.40;99.90;;;;;;5084492;28;20016;-38
2023/11/09 12:31:35;;;;;;;5.75;2.15;;;12.40;99.90;;;;;;5071389;28;20116;-37
2023/11/09 12:34:10;;;;;;;9.13;2.25;;;12.40;99.90;;;;;;5083242;28;20027;-37
2023/11/09 12:36:41;;;;;;;5.85;1.80;;;12.50;99.90;;;;;;5071631;28;20167;-37
2023/11/09 12:41:52;;;;;;;5.38;1.77;;;12.60;99.90;;;;;;5071923;28;20102;-37
2023/11/09 12:44:26;;;;;;;6.15;1.80;;;12.70;99.90;;;;;;5083501;28;20723;-37
2023/11/09 12:46:54;;;;;;;4.40;1.40;;;12.70;99.90;;;;;;5073913;28;20111;-37
2023/11/09 12:49:21;;;;;;;5.15;1.60;;;12.80;99.90;;;;;;5083475;28;20505;-37
2023/11/09 12:51:47;;;;;;;4.63;1.80;;;12.80;99.90;;;;;;5084132;28;20107;-36
2023/11/09 12:54:17;;;;;;;5.35;1.55;;;12.80;99.90;;;;;;5082479;28;20035;-37
2023/11/09 12:56:45;;;;;;;5.38;1.50;;;12.90;99.90;;;;;;5082960;28;20024;-38
2023/11/09 12:59:14;;;;;;;3.70;1.50;;;12.90;99.90;;;;;;5082708;28;20828;-39
2023/11/09 13:01:41;;;;;;;8.60;1.95;;;12.90;99.90;;;;;;5082375;28;20031;-37